Time;durP1;ratioP1;P1;durP2;ratioP2;P2;SDS_P1;SDS_P2;PMS_P1;PMS_P2;Temp;Humidity;BMP_temperature;BMP_pressure;BME280_temperature;BME280_humidity;BME280_pressure;Samples;Min_cycle;Max_cycle;Signal;HPM_P1;HPM_P2
2022/10/24 00:01:16;;;;;;;2.30;1.20;;;13.50;99.90;;;;;;5051490;28;20041;-86
2022/10/24 00:03:42;;;;;;;2.40;1.58;;;13.50;99.90;;;;;;5051964;28;20041;-87
2022/10/24 00:06:11;;;;;;;2.67;1.35;;;13.50;99.90;;;;;;5035545;28;20481;-87
2022/10/24 00:08:37;;;;;;;1.75;1.10;;;13.50;99.90;;;;;;5052140;28;20080;-86
2022/10/24 00:11:09;;;;;;;5.32;1.20;;;13.50;99.90;;;;;;5029931;28;20040;-87
2022/10/24 00:13:35;;;;;;;7.75;1.27;;;13.50;99.90;;;;;;5052343;28;20037;-86
2022/10/24 00:16:01;;;;;;;1.10;0.85;;;13.60;99.90;;;;;;5054894;28;20055;-87
2022/10/24 00:18:26;;;;;;;2.30;1.50;;;13.60;99.90;;;;;;5055376;28;20087;-87
2022/10/24 00:20:52;;;;;;;2.90;1.30;;;13.60;99.90;;;;;;5055459;28;20124;-87
2022/10/24 00:23:18;;;;;;;3.00;1.17;;;13.60;99.90;;;;;;5037847;28;20110;-87
2022/10/24 00:25:43;;;;;;;6.50;1.88;;;13.70;99.90;;;;;;5038781;28;20091;-87
2022/10/24 00:28:09;;;;;;;6.03;1.60;;;13.70;99.90;;;;;;5055261;28;20057;-87
2022/10/24 00:30:35;;;;;;;2.40;1.13;;;13.80;99.90;;;;;;5039071;28;20045;-83
2022/10/24 00:33:00;;;;;;;3.55;1.17;;;13.80;99.90;;;;;;5034330;28;20048;-83
2022/10/24 00:35:26;;;;;;;3.33;1.48;;;13.90;99.90;;;;;;5018496;28;20046;-83
2022/10/24 00:37:52;;;;;;;4.63;1.15;;;13.90;99.90;;;;;;5034807;28;20049;-83
2022/10/24 00:40:19;;;;;;;1.50;0.85;;;14.10;99.90;;;;;;5018326;28;20120;-83
2022/10/24 00:42:45;;;;;;;1.52;0.98;;;14.10;99.90;;;;;;5027230;28;20060;-83
2022/10/24 00:45:30;;;;;;;3.40;1.40;;;14.10;99.90;;;;;;5021813;28;20072;-83
2022/10/24 00:47:56;;;;;;;5.20;1.33;;;14.10;99.90;;;;;;5038504;28;20040;-87
2022/10/24 00:50:22;;;;;;;3.22;1.25;;;14.10;99.90;;;;;;5038329;28;20052;-87
2022/10/24 00:52:48;;;;;;;6.10;1.33;;;14.00;99.90;;;;;;5054791;28;20037;-87
2022/10/24 00:55:14;;;;;;;2.20;0.90;;;13.90;99.90;;;;;;5037532;28;20045;-87
2022/10/24 00:57:47;;;;;;;2.38;0.95;;;13.90;99.90;;;;;;5054174;28;20099;-87
2022/10/24 01:00:20;;;;;;;4.90;2.10;;;14.00;99.90;;;;;;5054599;28;20051;-87
2022/10/24 01:02:47;;;;;;;3.53;1.00;;;13.90;99.90;;;;;;5053394;28;20467;-87
2022/10/24 01:05:13;;;;;;;1.33;0.90;;;14.00;99.90;;;;;;5053607;28;20091;-87
2022/10/24 01:08:20;;;;;;;2.92;1.23;;;14.00;99.90;;;;;;5037551;28;20095;-87
2022/10/24 01:11:12;;;;;;;4.13;1.70;;;14.10;99.90;;;;;;5069412;28;20179;-87
2022/10/24 01:14:05;;;;;;;6.47;1.73;;;14.10;99.90;;;;;;5046669;28;20096;-86
2022/10/24 01:16:36;;;;;;;5.43;3.50;;;14.10;99.90;;;;;;5054434;28;20119;-87
2022/10/24 01:19:27;;;;;;;4.32;1.70;;;14.10;99.90;;;;;;5054356;28;20071;-87
2022/10/24 01:21:57;;;;;;;2.58;1.08;;;14.20;99.90;;;;;;5037186;28;20047;-87
2022/10/24 01:24:52;;;;;;;4.75;1.75;;;14.20;99.90;;;;;;5054032;28;20037;-87
2022/10/24 01:27:52;;;;;;;6.25;1.15;;;14.30;99.90;;;;;;5031256;28;20398;-87
2022/10/24 01:30:18;;;;;;;4.85;1.33;;;14.30;99.90;;;;;;5037624;28;20316;-87
2022/10/24 01:32:47;;;;;;;4.00;1.40;;;;;;;;;;5037397;28;20037;-86
2022/10/24 01:35:13;;;;;;;2.65;1.90;;;;;;;;;;5019153;28;20037;-87
2022/10/24 01:37:49;;;;;;;2.63;1.00;;;;;;;;;;5033867;28;20041;-83
2022/10/24 01:40:22;;;;;;;3.35;1.40;;;;;;;;;;5034047;28;20037;-83
2022/10/24 01:42:49;;;;;;;4.82;1.48;;;;;;;;;;5017820;28;20353;-83
2022/10/24 01:45:19;;;;;;;4.40;1.27;;;;;;;;;;5031882;28;20429;-83
2022/10/24 01:47:48;;;;;;;4.03;1.10;;;;;;;;;;5052844;28;20041;-83
2022/10/24 01:50:15;;;;;;;1.67;1.23;;;;;;;;;;5053365;28;20045;-83
2022/10/24 01:52:42;;;;;;;3.58;1.25;;;;;;;;;;5036636;28;20041;-83
2022/10/24 01:55:09;;;;;;;3.13;1.42;;;;;;;;;;5053012;28;20083;-83
2022/10/24 01:57:35;;;;;;;5.63;1.38;;;;;;;;;;5035913;28;20045;-83
2022/10/24 02:00:02;;;;;;;2.53;1.27;;;;;;;;;;5053175;28;20037;-83
2022/10/24 02:02:37;;;;;;;3.47;1.20;;;;;;;;;;5053074;28;20041;-83
2022/10/24 02:05:16;;;;;;;3.33;1.30;;;;;;;;;;5028697;28;20197;-83
2022/10/24 02:07:45;;;;;;;3.78;1.25;;;;;;;;;;5050391;28;20042;-83
2022/10/24 02:10:14;;;;;;;10.95;1.80;;;;;;;;;;5033218;28;20107;-83
2022/10/24 02:12:41;;;;;;;2.17;1.08;;;;;;;;;;5039095;28;20120;-83
2022/10/24 02:15:12;;;;;;;2.88;1.42;;;;;;;;;;5028475;28;20088;-83
2022/10/24 02:17:38;;;;;;;5.80;1.60;;;;;;;;;;5028140;28;20037;-82
2022/10/24 02:20:04;;;;;;;2.33;1.15;;;;;;;;;;5035561;28;20041;-82
2022/10/24 02:22:44;;;;;;;7.93;1.85;;;;;;;;;;5052391;28;20103;-82
2022/10/24 02:25:12;;;;;;;4.07;1.23;;;;;;;;;;5052376;28;20472;-83
2022/10/24 02:27:53;;;;;;;5.22;1.35;;;;;;;;;;5053671;28;20056;-83
2022/10/24 02:30:21;;;;;;;4.45;1.50;;;;;;;;;;5032905;28;20124;-83
2022/10/24 02:32:49;;;;;;;2.38;1.65;;;;;;;;;;5050990;28;20444;-83
2022/10/24 02:35:17;;;;;;;2.45;1.33;;;;;;;;;;5052721;28;20087;-83
2022/10/24 02:37:46;;;;;;;2.35;1.17;;;;;;;;;;5052435;28;20041;-83
2022/10/24 02:40:13;;;;;;;6.32;1.65;;;;;;;;;;5050101;28;20040;-83
2022/10/24 02:42:41;;;;;;;7.10;1.60;;;;;;;;;;5046684;28;20128;-83
2022/10/24 02:45:08;;;;;;;5.00;1.35;;;;;;;;;;5052844;28;20051;-87
2022/10/24 02:47:35;;;;;;;4.50;1.60;;;;;;;;;;5035744;28;20099;-87
2022/10/24 02:50:01;;;;;;;4.68;2.03;;;;;;;;;;5052443;28;20133;-87
2022/10/24 02:52:29;;;;;;;4.22;1.27;;;;;;;;;;5052426;28;20040;-87
2022/10/24 02:54:55;;;;;;;7.00;1.50;;;;;;;;;;5052984;28;20064;-87
2022/10/24 02:57:22;;;;;;;8.55;1.48;;;;;;;;;;5052885;28;20041;-87
2022/10/24 02:59:48;;;;;;;5.90;1.33;;;;;;;;;;5035791;28;20069;-83
2022/10/24 03:02:15;;;;;;;8.63;1.42;;;;;;;;;;5031942;28;20386;-83
2022/10/24 03:04:41;;;;;;;4.15;1.30;;;;;;;;;;5032407;28;20076;-83
2022/10/24 03:07:07;;;;;;;7.38;1.90;;;;;;;;;;5032594;28;20040;-83
2022/10/24 03:09:34;;;;;;;5.05;1.92;;;;;;;;;;5032426;28;20124;-83
2022/10/24 03:12:00;;;;;;;2.65;1.38;;;;;;;;;;5049187;28;20041;-83
2022/10/24 03:14:26;;;;;;;3.45;1.75;;;;;;;;;;5031600;28;20037;-83
2022/10/24 03:16:52;;;;;;;6.47;1.45;;;;;;;;;;5015766;28;20045;-83
2022/10/24 03:19:18;;;;;;;9.60;1.73;;;;;;;;;;5015769;28;20041;-83
2022/10/24 03:21:44;;;;;;;5.32;1.50;;;;;;;;;;4999876;28;20124;-83
2022/10/24 03:24:11;;;;;;;3.85;1.33;;;;;;;;;;5034191;28;20096;-83
2022/10/24 03:26:37;;;;;;;6.20;1.80;;;;;;;;;;5032587;28;20029;-83
2022/10/24 03:29:03;;;;;;;2.65;1.40;;;;;;;;;;5051589;28;20498;-83
2022/10/24 03:31:30;;;;;;;3.70;1.75;;;;;;;;;;5051842;28;20053;-83
2022/10/24 03:33:57;;;;;;;3.97;1.40;;;;;;;;;;5051847;28;20045;-83
2022/10/24 03:36:23;;;;;;;4.18;1.60;;;;;;;;;;5051838;28;20449;-83
2022/10/24 03:38:49;;;;;;;7.25;1.52;;;;;;;;;;5034981;28;20451;-83
2022/10/24 03:41:15;;;;;;;10.05;2.08;;;;;;;;;;5052059;28;20399;-83
2022/10/24 03:43:41;;;;;;;4.95;1.33;;;;;;;;;;5042734;23;20053;-83
2022/10/24 03:46:07;;;;;;;2.83;1.58;;;;;;;;;;5059771;28;20490;-83
2022/10/24 03:48:33;;;;;;;2.78;1.70;;;;;;;;;;5061796;28;20045;-83
2022/10/24 03:50:59;;;;;;;6.05;1.70;;;;;;;;;;5055540;28;20495;-83
2022/10/24 03:53:26;;;;;;;4.90;1.60;;;;;;;;;;5055749;28;20130;-83
2022/10/24 03:55:52;;;;;;;7.95;1.60;;;;;;;;;;5041455;28;20033;-83
2022/10/24 03:58:18;;;;;;;3.78;1.13;;;;;;;;;;5064323;28;20132;-83
2022/10/24 04:00:44;;;;;;;5.80;1.60;;;;;;;;;;5054616;28;20078;-83
2022/10/24 04:03:10;;;;;;;8.20;1.85;;;;;;;;;;5038714;28;20040;-83
2022/10/24 04:05:36;;;;;;;4.18;2.15;;;;;;;;;;5055815;28;20029;-83
2022/10/24 04:08:03;;;;;;;2.92;1.20;;;;;;;;;;5069624;28;20561;-83
2022/10/24 04:10:29;;;;;;;4.97;1.70;;;;;;;;;;5038530;28;20048;-83
2022/10/24 04:12:55;;;;;;;4.07;1.70;;;;;;;;;;5038378;28;20519;-83
2022/10/24 04:15:21;;;;;;;4.45;1.55;;;;;;;;;;5055983;28;20040;-83
2022/10/24 04:17:47;;;;;;;5.18;1.73;;;;;;;;;;5039922;28;20487;-83
2022/10/24 04:20:18;;;;;;;2.50;1.30;;;;;;;;;;5038575;28;20333;-83
2022/10/24 04:22:44;;;;;;;3.53;1.58;;;;;;;;;;5055556;28;20076;-83
2022/10/24 04:25:10;;;;;;;5.95;1.55;;;;;;;;;;5071961;28;20502;-83
2022/10/24 04:27:39;;;;;;;2.55;1.27;;;;;;;;;;5079137;28;20084;-83
2022/10/24 04:30:06;;;;;;;2.28;1.23;;;;;;;;;;5072586;28;20048;-83
2022/10/24 04:32:33;;;;;;;3.67;1.42;;;;;;;;;;5038685;28;20044;-83
2022/10/24 04:34:59;;;;;;;5.07;1.77;;;;;;;;;;5054957;28;20102;-83
2022/10/24 04:37:24;;;;;;;3.38;1.40;;;14.20;99.90;;;;;;5055832;28;20040;-82
2022/10/24 04:39:52;;;;;;;14.75;1.77;;;14.10;99.90;;;;;;5038250;28;20037;-83
2022/10/24 04:42:18;;;;;;;3.70;1.50;;;14.10;99.90;;;;;;5054458;28;20060;-83
2022/10/24 04:44:43;;;;;;;5.05;1.30;;;14.00;99.90;;;;;;5038022;28;20037;-83
2022/10/24 04:47:09;;;;;;;1.70;1.38;;;14.00;99.90;;;;;;5038027;28;20033;-83
2022/10/24 04:49:35;;;;;;;2.20;1.42;;;14.00;99.90;;;;;;5040364;28;20037;-83
2022/10/24 04:52:00;;;;;;;4.53;1.20;;;13.90;99.90;;;;;;5054594;28;20487;-83
2022/10/24 04:54:26;;;;;;;4.10;1.83;;;13.90;99.90;;;;;;5037727;28;20048;-83
2022/10/24 04:56:52;;;;;;;2.47;0.95;;;13.90;99.90;;;;;;5054370;28;20044;-83
2022/10/24 04:59:17;;;;;;;4.55;1.25;;;13.90;99.90;;;;;;5055694;28;20035;-83
2022/10/24 05:01:43;;;;;;;5.03;2.22;;;14.00;99.90;;;;;;5052061;28;20559;-83
2022/10/24 05:04:09;;;;;;;3.95;0.75;;;14.00;99.90;;;;;;5047288;28;20037;-83
2022/10/24 05:06:34;;;;;;;2.63;1.60;;;14.00;99.90;;;;;;5054477;28;20097;-83
2022/10/24 05:09:00;;;;;;;2.20;1.30;;;14.00;99.90;;;;;;5053976;28;20509;-84
2022/10/24 05:11:26;;;;;;;2.20;1.10;;;14.00;99.90;;;;;;5053757;28;20087;-83
2022/10/24 05:13:52;;;;;;;3.08;1.35;;;14.00;99.90;;;;;;5054273;28;20037;-83
2022/10/24 05:16:17;;;;;;;2.30;0.90;;;14.00;99.90;;;;;;5054233;28;20182;-83
2022/10/24 05:18:43;;;;;;;4.90;1.13;;;14.00;99.90;;;;;;5037304;28;20457;-83
2022/10/24 05:21:09;;;;;;;2.03;1.30;;;14.10;99.90;;;;;;5038138;28;20040;-83
2022/10/24 05:23:34;;;;;;;3.13;1.25;;;14.10;99.90;;;;;;5037350;28;20033;-83
2022/10/24 05:26:00;;;;;;;4.00;1.20;;;14.20;99.90;;;;;;5053111;28;20057;-83
2022/10/24 05:28:26;;;;;;;1.48;1.05;;;14.30;99.90;;;;;;5054097;28;20044;-83
2022/10/24 05:30:52;;;;;;;3.75;1.15;;;14.40;99.90;;;;;;5041768;28;20122;-83
2022/10/24 05:33:17;;;;;;;2.47;1.05;;;14.40;99.90;;;;;;5062060;28;20037;-83
2022/10/24 05:35:43;;;;;;;2.20;1.27;;;14.50;99.90;;;;;;5053474;28;20407;-83
2022/10/24 05:38:08;;;;;;;4.63;1.35;;;14.60;99.90;;;;;;5053124;28;20049;-83
2022/10/24 05:40:34;;;;;;;2.75;1.00;;;14.60;99.90;;;;;;5036902;28;20039;-83
2022/10/24 05:43:00;;;;;;;4.85;1.23;;;14.60;99.90;;;;;;5035280;28;20048;-83
2022/10/24 05:45:26;;;;;;;1.80;0.80;;;14.60;99.90;;;;;;5053433;28;20447;-83
2022/10/24 05:47:51;;;;;;;3.65;1.48;;;14.60;99.90;;;;;;5037241;28;20073;-83
2022/10/24 05:50:17;;;;;;;4.68;1.38;;;14.60;99.90;;;;;;5053303;28;20063;-83
2022/10/24 05:52:43;;;;;;;5.97;1.10;;;14.60;99.90;;;;;;5037177;28;20067;-83
2022/10/24 05:55:09;;;;;;;3.03;1.02;;;14.60;99.90;;;;;;5055076;28;20094;-82
2022/10/24 05:57:38;;;;;;;5.88;1.17;;;;;;;;;;5054628;28;20041;-83
2022/10/24 06:00:08;;;;;;;2.53;0.90;;;;;;;;;;5054921;28;20048;-83
2022/10/24 06:02:34;;;;;;;4.30;0.98;;;;;;;;;;5047663;28;20041;-83
2022/10/24 06:05:00;;;;;;;2.38;0.95;;;14.60;99.90;;;;;;5055048;28;20041;-83
2022/10/24 06:07:26;;;;;;;2.67;1.00;;;14.60;99.90;;;;;;5054203;28;20375;-83
2022/10/24 06:09:51;;;;;;;5.13;1.08;;;14.50;99.90;;;;;;5054006;28;20037;-83
2022/10/24 06:12:17;;;;;;;3.20;0.88;;;14.40;99.90;;;;;;5054750;28;20051;-83
2022/10/24 06:14:43;;;;;;;5.82;1.27;;;14.40;99.90;;;;;;5054203;28;20045;-83
2022/10/24 06:17:10;;;;;;;7.70;1.10;;;14.40;99.90;;;;;;5054708;28;20037;-82
2022/10/24 06:19:37;;;;;;;3.67;1.05;;;14.40;99.90;;;;;;5054568;28;20514;-83
2022/10/24 06:22:04;;;;;;;3.65;0.88;;;14.30;99.90;;;;;;5066729;28;20053;-83
2022/10/24 06:24:32;;;;;;;5.80;1.00;;;14.30;99.90;;;;;;5074010;28;20044;-83
2022/10/24 06:26:58;;;;;;;5.35;1.00;;;14.40;99.90;;;;;;5074740;28;20482;-83
2022/10/24 06:29:24;;;;;;;6.03;0.98;;;14.50;99.90;;;;;;5073130;28;20055;-83
2022/10/24 06:31:49;;;;;;;5.78;1.35;;;14.60;99.90;;;;;;5053964;28;20041;-83
2022/10/24 06:34:15;;;;;;;4.85;0.88;;;14.70;99.90;;;;;;5052777;28;20503;-82
2022/10/24 06:36:41;;;;;;;1.25;0.77;;;14.70;99.90;;;;;;5052676;28;20041;-83
2022/10/24 06:39:06;;;;;;;3.15;1.50;;;14.70;99.90;;;;;;5052685;28;20531;-83
2022/10/24 06:41:32;;;;;;;3.60;1.63;;;14.70;99.90;;;;;;5064786;28;20036;-82
2022/10/24 06:43:58;;;;;;;1.33;0.70;;;;;;;;;;5064282;28;20110;-83
2022/10/24 06:46:24;;;;;;;3.65;1.38;;;;;;;;;;5052463;28;20514;-83
2022/10/24 06:48:54;;;;;;;10.45;2.10;;;;;;;;;;5036001;28;20071;-83
2022/10/24 06:51:20;;;;;;;1.08;0.60;;;;;;;;;;5057957;28;20048;-83
2022/10/24 06:53:46;;;;;;;3.70;0.63;;;;;;;;;;5038125;28;20048;-83
2022/10/24 06:56:13;;;;;;;4.05;0.68;;;;;;;;;;5051993;28;20044;-83
2022/10/24 06:58:40;;;;;;;1.67;0.70;;;;;;;;;;5035460;28;20567;-82
2022/10/24 07:01:13;;;;;;;3.17;0.95;;;;;;;;;;5035721;28;20048;-82
2022/10/24 07:03:39;;;;;;;4.18;1.13;;;;;;;;;;5052259;28;20079;-82
2022/10/24 07:06:06;;;;;;;1.20;0.52;;;;;;;;;;5035501;28;20116;-83
2022/10/24 07:08:33;;;;;;;1.70;0.75;;;;;;;;;;5052499;28;20483;-83
2022/10/24 07:10:59;;;;;;;1.08;0.47;;;;;;;;;;5035985;28;20037;-86
2022/10/24 07:13:25;;;;;;;3.80;0.90;;;;;;;;;;5065936;28;20051;-87
2022/10/24 07:15:53;;;;;;;1.88;0.80;;;;;;;;;;5072259;28;20041;-87
2022/10/24 07:18:19;;;;;;;2.60;0.60;;;;;;;;;;5035850;28;20132;-87
2022/10/24 07:20:45;;;;;;;6.78;1.95;;;;;;;;;;5052050;28;20479;-87
2022/10/24 07:23:11;;;;;;;4.22;1.20;;;;;;;;;;5059675;28;20040;-87
2022/10/24 07:25:39;;;;;;;5.28;0.90;;;;;;;;;;5043763;28;20043;-87
2022/10/24 07:28:06;;;;;;;5.10;0.95;;;;;;;;;;5039464;28;20613;-83
2022/10/24 07:30:32;;;;;;;1.85;0.90;;;;;;;;;;5056162;28;20076;-82
2022/10/24 07:32:58;;;;;;;1.52;0.52;;;;;;;;;;5040403;28;20045;-83
2022/10/24 07:35:24;;;;;;;1.90;0.73;;;;;;;;;;5039439;28;20045;-83
2022/10/24 07:37:52;;;;;;;1.00;0.63;;;;;;;;;;5039199;28;20043;-82
2022/10/24 07:40:18;;;;;;;2.55;0.70;;;;;;;;;;5039304;28;20033;-83
2022/10/24 07:42:44;;;;;;;4.78;1.42;;;;;;;;;;5072540;28;20137;-83
2022/10/24 07:45:11;;;;;;;2.85;1.17;;;;;;;;;;5087367;28;20037;-87
2022/10/24 07:47:37;;;;;;;5.30;0.90;;;;;;;;;;5069649;28;20066;-87
2022/10/24 07:50:04;;;;;;;4.68;1.00;;;;;;;;;;5039322;28;20426;-87
2022/10/24 07:52:30;;;;;;;4.28;1.00;;;;;;;;;;5055596;28;20040;-87
2022/10/24 07:54:57;;;;;;;2.17;0.90;;;;;;;;;;5056687;28;20041;-87
2022/10/24 07:57:35;;;;;;;5.95;0.80;;;;;;;;;;5134649;27;1303074;-85
2022/10/24 08:00:01;;;;;;;3.72;0.73;;;;;;;;;;5138133;27;20046;-82
2022/10/24 08:02:27;;;;;;;6.47;1.92;;;;;;;;;;5154641;27;20041;-81
2022/10/24 08:04:53;;;;;;;2.60;1.08;;;;;;;;;;5135889;27;20045;-81
2022/10/24 08:07:19;;;;;;;2.97;0.90;;;;;;;;;;5154574;27;20039;-82
2022/10/24 08:09:46;;;;;;;2.33;0.75;;;;;;;;;;5154100;27;20038;-82
2022/10/24 08:12:12;;;;;;;3.38;1.02;;;;;;;;;;5116576;27;20071;-82
2022/10/24 08:14:39;;;;;;;1.40;0.55;;;;;;;;;;5116753;27;20046;-82
2022/10/24 08:17:05;;;;;;;6.15;0.90;;;;;;;;;;5134736;27;20035;-82
2022/10/24 08:19:32;;;;;;;2.28;0.60;;;;;;;;;;5116952;27;20482;-81
2022/10/24 08:21:58;;;;;;;3.25;1.27;;;17.80;99.90;;;;;;5138038;27;20050;-81
2022/10/24 08:24:24;;;;;;;5.75;1.02;;;17.70;99.90;;;;;;5133548;27;20046;-82
2022/10/24 08:26:49;;;;;;;5.47;0.85;;;17.40;99.90;;;;;;5133393;27;20035;-82
2022/10/24 08:29:21;;;;;;;6.35;1.13;;;17.20;99.90;;;;;;5147278;27;20122;-82
2022/10/24 08:31:54;;;;;;;1.42;0.60;;;17.60;99.90;;;;;;5131939;27;20038;-82
2022/10/24 08:34:21;;;;;;;6.40;0.80;;;;;;;;;;5154424;27;20134;-86
2022/10/24 08:36:47;;;;;;;2.35;0.60;;;;;;;;;;5154025;27;20041;-86
2022/10/24 08:39:14;;;;;;;8.88;1.17;;;18.60;99.90;;;;;;5121969;27;20545;-86
2022/10/24 08:41:50;;;;;;;2.75;0.57;;;19.10;99.90;;;;;;5143616;27;20034;-86
2022/10/24 08:44:20;;;;;;;3.00;0.55;;;19.70;99.90;;;;;;5136690;27;20034;-86
2022/10/24 08:46:59;;;;;;;1.20;0.75;;;20.00;99.90;;;;;;5154179;27;20085;-86
2022/10/24 08:49:50;;;;;;;6.40;0.95;;;20.30;99.90;;;;;;5131400;27;20047;-86
2022/10/24 08:52:22;;;;;;;1.50;0.75;;;20.10;99.90;;;;;;5134859;27;20190;-86
2022/10/24 08:54:49;;;;;;;1.58;0.60;;;20.20;99.90;;;;;;5116141;27;20043;-86
2022/10/24 08:57:27;;;;;;;5.80;0.70;;;20.50;99.90;;;;;;5098763;27;20053;-86
2022/10/24 09:00:23;;;;;;;0.93;0.47;;;21.00;99.90;;;;;;5142860;27;20385;-86
2022/10/24 09:03:05;;;;;;;3.97;0.80;;;21.60;99.90;;;;;;5129986;27;20051;-86
2022/10/24 09:05:46;;;;;;;1.88;0.60;;;20.90;99.90;;;;;;5133889;27;20035;-86
2022/10/24 09:08:23;;;;;;;2.15;0.90;;;20.90;99.90;;;;;;5120420;27;20039;-83
2022/10/24 09:11:28;;;;;;;4.72;0.98;;;21.20;99.90;;;;;;5114116;27;20069;-83
2022/10/24 09:13:55;;;;;;;1.60;0.73;;;21.80;99.90;;;;;;5126312;27;20047;-83
2022/10/24 09:16:22;;;;;;;3.08;0.70;;;22.90;99.90;;;;;;5094401;27;20039;-83
2022/10/24 09:18:53;;;;;;;1.30;0.40;;;23.40;99.90;;;;;;5126627;27;20039;-83
2022/10/24 09:21:19;;;;;;;0.70;0.70;;;23.10;99.90;;;;;;5110702;27;20035;-84
2022/10/24 09:23:50;;;;;;;4.00;0.80;;;22.90;99.90;;;;;;5108475;27;20184;-82
2022/10/24 09:26:31;;;;;;;2.75;0.75;;;23.40;99.90;;;;;;5108052;27;20130;-83
2022/10/24 09:28:58;;;;;;;3.90;0.60;;;23.70;99.40;;;;;;5127385;27;20046;-83
2022/10/24 09:31:27;;;;;;;3.08;0.77;;;23.40;98.90;;;;;;5125636;27;20046;-82
2022/10/24 09:33:55;;;;;;;2.78;0.73;;;22.40;99.90;;;;;;5114747;27;20083;-84
2022/10/24 09:36:24;;;;;;;4.30;0.63;;;21.70;99.90;;;;;;5108361;27;20114;-83
2022/10/24 09:38:51;;;;;;;4.95;1.52;;;21.20;99.90;;;;;;5161081;27;20063;-84
2022/10/24 09:41:24;;;;;;;4.28;1.30;;;20.70;99.90;;;;;;5147883;27;20067;-84
2022/10/24 09:44:04;;;;;;;3.78;0.75;;;20.10;99.90;;;;;;5149201;27;20059;-83
2022/10/24 09:46:43;;;;;;;2.58;0.68;;;19.40;99.90;;;;;;5130975;27;20050;-83
2022/10/24 09:49:39;;;;;;;0.73;0.40;;;18.80;99.90;;;;;;5050245;28;20045;-84
2022/10/24 09:52:06;;;;;;;2.33;0.85;;;18.40;99.90;;;;;;5127257;27;20047;-84
2022/10/24 09:55:18;;;;;;;4.40;1.40;;;18.20;99.90;;;;;;5124530;28;20093;-84
2022/10/24 09:57:44;;;;;;;5.32;1.45;;;17.80;99.90;;;;;;5088742;28;20063;-83
2022/10/24 10:00:32;;;;;;;4.60;0.85;;;17.70;99.90;;;;;;5089409;28;20523;-84
2022/10/24 10:03:04;;;;;;;5.07;1.27;;;17.80;99.90;;;;;;5106104;28;20039;-85
2022/10/24 10:05:54;;;;;;;4.35;0.98;;;18.00;99.90;;;;;;5072654;28;20044;-84
2022/10/24 10:08:29;;;;;;;2.70;0.70;;;18.30;99.90;;;;;;5076344;28;20114;-84
2022/10/24 10:11:12;;;;;;;2.90;0.90;;;18.40;99.90;;;;;;5108892;28;20039;-84
2022/10/24 10:13:53;;;;;;;6.35;0.82;;;18.30;99.90;;;;;;5094269;28;20035;-85
2022/10/24 10:16:25;;;;;;;3.78;1.35;;;18.10;99.90;;;;;;5114967;28;20051;-84
2022/10/24 10:19:05;;;;;;;7.15;1.27;;;17.80;99.90;;;;;;5097508;28;20126;-84
2022/10/24 10:21:50;;;;;;;3.60;0.82;;;17.80;99.90;;;;;;5092484;28;20039;-84
2022/10/24 10:24:45;;;;;;;4.40;1.35;;;17.70;99.90;;;;;;5086643;28;20046;-83
2022/10/24 10:27:40;;;;;;;2.65;0.60;;;17.50;99.90;;;;;;5129015;27;20057;-83
2022/10/24 10:30:13;;;;;;;3.30;0.63;;;17.70;99.90;;;;;;5130356;27;20095;-83
2022/10/24 10:32:48;;;;;;;3.45;0.80;;;;;;;;;;5126228;27;20090;-82
2022/10/24 10:35:26;;;;;;;2.25;0.70;;;;;;;;;;5114106;27;20039;-83
2022/10/24 10:38:05;;;;;;;6.03;1.42;;;;;;;;;;5111258;27;20041;-83
2022/10/24 10:40:33;;;;;;;2.05;0.77;;;;;;;;;;5134705;27;20070;-86
2022/10/24 10:43:02;;;;;;;7.07;1.67;;;;;;;;;;5122564;27;20035;-87
2022/10/24 10:45:49;;;;;;;7.07;1.33;;;20.50;99.90;;;;;;5114059;27;20100;-87
2022/10/24 10:48:48;;;;;;;3.78;1.05;;;21.60;99.90;;;;;;5112896;27;20047;-83
2022/10/24 10:51:24;;;;;;;6.40;1.67;;;21.90;99.90;;;;;;5134848;27;20043;-83
2022/10/24 10:54:17;;;;;;;4.80;1.58;;;22.40;99.90;;;;;;5129038;27;20038;-83
2022/10/24 10:56:55;;;;;;;1.65;0.63;;;21.80;99.90;;;;;;5111631;27;20532;-83
2022/10/24 10:59:59;;;;;;;6.50;0.90;;;21.80;99.90;;;;;;5121689;27;20039;-83
2022/10/24 11:06:14;;;;;;;3.75;1.10;;;20.10;99.90;;;;;;5140569;27;20039;-82
2022/10/24 11:08:52;;;;;;;9.05;1.77;;;19.40;99.90;;;;;;5124383;27;20035;-83
2022/10/24 11:11:37;;;;;;;3.20;0.90;;;18.80;99.90;;;;;;5123921;27;20043;-82
2022/10/24 11:14:06;;;;;;;3.20;1.08;;;18.20;99.90;;;;;;5102245;28;20032;-82
2022/10/24 11:16:37;;;;;;;1.67;0.80;;;18.10;99.90;;;;;;5102923;28;20036;-83
2022/10/24 11:19:11;;;;;;;8.82;1.27;;;18.10;99.90;;;;;;5136147;27;20043;-83
2022/10/24 11:21:39;;;;;;;6.53;0.85;;;18.00;99.90;;;;;;5134154;27;20050;-83
2022/10/24 11:24:20;;;;;;;3.65;0.95;;;17.60;99.90;;;;;;5114594;27;20043;-83
2022/10/24 11:27:23;;;;;;;3.78;1.30;;;17.60;99.90;;;;;;5125724;27;20039;-83
2022/10/24 11:29:52;;;;;;;5.22;1.30;;;17.60;99.90;;;;;;5103898;27;20039;-83
2022/10/24 11:32:50;;;;;;;6.30;1.08;;;17.50;99.90;;;;;;5108054;27;20045;-83
2022/10/24 11:35:25;;;;;;;1.77;0.52;;;17.70;99.90;;;;;;5095920;28;20130;-83
2022/10/24 11:38:00;;;;;;;4.07;1.23;;;17.80;99.90;;;;;;5116260;27;20047;-86
2022/10/24 11:40:28;;;;;;;5.38;0.80;;;17.70;99.90;;;;;;5130191;27;20117;-86
2022/10/24 11:43:02;;;;;;;4.72;0.80;;;17.60;99.90;;;;;;5125176;27;20047;-86
2022/10/24 11:45:37;;;;;;;6.07;1.30;;;17.50;99.90;;;;;;5107457;27;20118;-85
2022/10/24 11:48:15;;;;;;;4.47;0.63;;;17.30;99.90;;;;;;5124916;27;20134;-86
2022/10/24 11:50:57;;;;;;;3.38;0.90;;;17.10;99.90;;;;;;5128657;27;20031;-86
2022/10/24 11:53:31;;;;;;;7.32;0.68;;;16.90;99.90;;;;;;5118569;28;20177;-86
2022/10/24 11:56:07;;;;;;;3.80;0.60;;;16.90;99.90;;;;;;5112120;28;20067;-86
2022/10/24 11:58:46;;;;;;;0.83;0.43;;;17.00;99.90;;;;;;5130570;27;20035;-85
2022/10/24 12:01:20;;;;;;;1.90;0.73;;;17.20;99.90;;;;;;5113014;27;20031;-86
2022/10/24 12:04:33;;;;;;;5.18;1.15;;;17.10;99.90;;;;;;5126055;27;20027;-86
2022/10/24 12:07:24;;;;;;;4.90;0.90;;;17.10;99.90;;;;;;5126819;27;20053;-86
2022/10/24 12:09:52;;;;;;;4.03;0.70;;;17.30;99.90;;;;;;5124580;27;20045;-86
2022/10/24 12:12:39;;;;;;;3.03;1.00;;;17.30;99.90;;;;;;5123202;27;20095;-86
2022/10/24 12:15:27;;;;;;;1.77;0.70;;;17.30;99.90;;;;;;5114378;27;20046;-85
2022/10/24 12:18:12;;;;;;;5.47;1.92;;;17.40;99.90;;;;;;5107131;27;20081;-86
2022/10/24 12:20:39;;;;;;;1.88;0.63;;;17.30;99.90;;;;;;5123823;27;20086;-86
2022/10/24 12:23:06;;;;;;;1.55;0.88;;;17.10;99.90;;;;;;5114926;27;20544;-86
2022/10/24 12:25:41;;;;;;;2.65;0.73;;;17.10;99.90;;;;;;5118584;28;20039;-84
2022/10/24 12:28:24;;;;;;;1.30;0.55;;;17.10;99.90;;;;;;5114657;28;20039;-81
2022/10/24 12:31:25;;;;;;;3.92;1.02;;;17.20;99.90;;;;;;5109183;27;20049;-78
2022/10/24 12:34:31;;;;;;;3.75;0.70;;;17.20;99.90;;;;;;5125156;27;20043;-79
2022/10/24 12:37:21;;;;;;;6.25;1.50;;;17.20;99.90;;;;;;5126456;27;20037;-79
2022/10/24 12:39:55;;;;;;;5.25;0.68;;;17.50;99.90;;;;;;5128183;27;20038;-79
2022/10/24 12:42:47;;;;;;;2.97;0.65;;;17.60;99.90;;;;;;5114535;27;20361;-79
2022/10/24 12:45:43;;;;;;;2.58;0.98;;;17.60;99.90;;;;;;5141715;27;20042;-82
2022/10/24 12:48:12;;;;;;;3.58;0.80;;;17.70;99.90;;;;;;5081234;27;20047;-83
2022/10/24 12:50:38;;;;;;;4.07;1.48;;;17.70;99.90;;;;;;5130247;27;20065;-83
2022/10/24 12:53:17;;;;;;;2.80;0.95;;;17.60;99.90;;;;;;5124443;27;20115;-83
2022/10/24 12:55:43;;;;;;;4.57;0.93;;;17.50;99.90;;;;;;5128361;27;20087;-83
2022/10/24 12:58:27;;;;;;;4.78;1.02;;;17.40;99.90;;;;;;5128106;27;20122;-83
2022/10/24 13:00:57;;;;;;;5.63;1.65;;;17.40;99.90;;;;;;5110031;27;20031;-82
2022/10/24 13:03:55;;;;;;;5.10;1.10;;;17.30;99.90;;;;;;5125947;27;20027;-81
2022/10/24 13:06:47;;;;;;;4.35;1.10;;;17.40;99.90;;;;;;5111405;27;20038;-82
2022/10/24 13:09:23;;;;;;;3.38;1.10;;;17.40;99.90;;;;;;5129241;27;20038;-82
2022/10/24 13:12:04;;;;;;;3.42;1.13;;;17.30;99.90;;;;;;5108044;27;20077;-82
2022/10/24 13:14:52;;;;;;;5.57;0.93;;;17.20;99.90;;;;;;5125987;27;20467;-81
2022/10/24 13:17:39;;;;;;;5.20;0.98;;;17.10;99.90;;;;;;5125510;27;20073;-82
2022/10/24 13:20:29;;;;;;;2.58;0.80;;;17.10;99.90;;;;;;5150279;27;20086;-82
2022/10/24 13:23:40;;;;;;;4.30;1.02;;;17.00;99.90;;;;;;5121409;27;20034;-83
2022/10/24 13:26:44;;;;;;;3.65;0.70;;;16.90;99.90;;;;;;5144571;27;20045;-82
2022/10/24 13:29:25;;;;;;;4.32;1.02;;;16.80;99.90;;;;;;5115257;27;20496;-80
2022/10/24 13:32:14;;;;;;;4.10;1.10;;;16.70;99.90;;;;;;5147046;27;20049;-79
2022/10/24 13:34:49;;;;;;;1.67;0.98;;;16.70;99.90;;;;;;5112374;27;20072;-78
2022/10/24 13:37:36;;;;;;;2.10;0.45;;;16.70;99.90;;;;;;5128086;27;20038;-80
2022/10/24 13:40:19;;;;;;;5.57;1.00;;;16.70;99.90;;;;;;5108087;27;20437;-80
2022/10/24 13:42:59;;;;;;;2.25;0.68;;;16.70;99.90;;;;;;5128675;27;20031;-80
2022/10/24 13:45:45;;;;;;;3.13;0.80;;;16.70;99.90;;;;;;5129740;27;20048;-81
2022/10/24 13:48:19;;;;;;;2.80;1.25;;;16.70;99.90;;;;;;5102296;27;20031;-81
2022/10/24 13:51:08;;;;;;;2.42;0.63;;;17.10;99.90;;;;;;5123257;27;20035;-85
2022/10/24 13:53:42;;;;;;;4.07;0.80;;;17.20;99.90;;;;;;5112557;27;20126;-85
2022/10/24 13:56:12;;;;;;;0.75;0.40;;;17.20;99.90;;;;;;5118105;27;20485;-85
2022/10/24 13:58:40;;;;;;;3.65;1.08;;;17.00;99.90;;;;;;5110862;27;20511;-85